sensor_id;sensor_type;location;lat;lon;timestamp;P1;durP1;ratioP1;P2;durP2;ratioP2
19251;SDS011;9760;50.944;5.304;2023-09-19T00:00:20;11.90;;;2.73;;
19251;SDS011;9760;50.944;5.304;2023-09-19T00:02:51;18.37;;;3.13;;
19251;SDS011;9760;50.944;5.304;2023-09-19T00:05:18;12.10;;;3.00;;
19251;SDS011;9760;50.944;5.304;2023-09-19T00:07:48;22.37;;;5.50;;
19251;SDS011;9760;50.944;5.304;2023-09-19T00:10:20;12.23;;;2.60;;
19251;SDS011;9760;50.944;5.304;2023-09-19T00:12:55;20.10;;;3.17;;
19251;SDS011;9760;50.944;5.304;2023-09-19T00:15:22;16.60;;;2.60;;
19251;SDS011;9760;50.944;5.304;2023-09-19T00:17:48;10.30;;;2.70;;
19251;SDS011;9760;50.944;5.304;2023-09-19T00:20:14;16.53;;;2.23;;
19251;SDS011;9760;50.944;5.304;2023-09-19T00:22:42;12.60;;;2.10;;
19251;SDS011;9760;50.944;5.304;2023-09-19T00:25:08;25.73;;;3.00;;
19251;SDS011;9760;50.944;5.304;2023-09-19T00:27:38;13.13;;;2.77;;
19251;SDS011;9760;50.944;5.304;2023-09-19T00:30:10;14.50;;;2.70;;
19251;SDS011;9760;50.944;5.304;2023-09-19T00:32:44;13.83;;;2.43;;
19251;SDS011;9760;50.944;5.304;2023-09-19T00:35:12;14.10;;;2.30;;
19251;SDS011;9760;50.944;5.304;2023-09-19T00:37:42;16.27;;;2.33;;
19251;SDS011;9760;50.944;5.304;2023-09-19T00:40:08;17.13;;;2.37;;
19251;SDS011;9760;50.944;5.304;2023-09-19T00:42:38;14.33;;;2.13;;
19251;SDS011;9760;50.944;5.304;2023-09-19T00:45:06;17.67;;;2.37;;
19251;SDS011;9760;50.944;5.304;2023-09-19T00:47:34;20.20;;;2.87;;
19251;SDS011;9760;50.944;5.304;2023-09-19T00:50:00;12.33;;;2.50;;
19251;SDS011;9760;50.944;5.304;2023-09-19T00:52:28;13.70;;;2.90;;
19251;SDS011;9760;50.944;5.304;2023-09-19T00:54:54;17.23;;;2.67;;
19251;SDS011;9760;50.944;5.304;2023-09-19T00:57:19;11.83;;;2.40;;
19251;SDS011;9760;50.944;5.304;2023-09-19T00:59:47;10.80;;;2.40;;
19251;SDS011;9760;50.944;5.304;2023-09-19T01:02:15;17.07;;;2.23;;
19251;SDS011;9760;50.944;5.304;2023-09-19T01:04:41;14.07;;;2.47;;
19251;SDS011;9760;50.944;5.304;2023-09-19T01:07:08;16.40;;;2.87;;
19251;SDS011;9760;50.944;5.304;2023-09-19T01:09:34;21.23;;;2.90;;
19251;SDS011;9760;50.944;5.304;2023-09-19T01:12:01;16.27;;;2.60;;
19251;SDS011;9760;50.944;5.304;2023-09-19T01:15:16;17.70;;;2.30;;
19251;SDS011;9760;50.944;5.304;2023-09-19T01:22:37;12.57;;;2.27;;
19251;SDS011;9760;50.944;5.304;2023-09-19T01:31:06;16.67;;;2.60;;
19251;SDS011;9760;50.944;5.304;2023-09-19T01:36:29;14.43;;;1.97;;
19251;SDS011;9760;50.944;5.304;2023-09-19T01:39:06;10.53;;;2.57;;
19251;SDS011;9760;50.944;5.304;2023-09-19T01:44:29;18.93;;;3.40;;
19251;SDS011;9760;50.944;5.304;2023-09-19T01:47:26;17.77;;;2.93;;
19251;SDS011;9760;50.944;5.304;2023-09-19T01:52:59;16.37;;;2.63;;
19251;SDS011;9760;50.944;5.304;2023-09-19T01:55:36;13.40;;;2.53;;
19251;SDS011;9760;50.944;5.304;2023-09-19T01:58:14;18.47;;;3.13;;
19251;SDS011;9760;50.944;5.304;2023-09-19T02:01:02;13.47;;;2.27;;
19251;SDS011;9760;50.944;5.304;2023-09-19T02:03:30;11.97;;;2.33;;
19251;SDS011;9760;50.944;5.304;2023-09-19T02:05:58;18.47;;;3.00;;
19251;SDS011;9760;50.944;5.304;2023-09-19T02:08:24;10.20;;;2.50;;
19251;SDS011;9760;50.944;5.304;2023-09-19T02:10:51;9.80;;;2.30;;
19251;SDS011;9760;50.944;5.304;2023-09-19T02:13:20;11.90;;;2.33;;
19251;SDS011;9760;50.944;5.304;2023-09-19T02:15:49;18.73;;;3.57;;
19251;SDS011;9760;50.944;5.304;2023-09-19T02:18:15;10.10;;;2.30;;
19251;SDS011;9760;50.944;5.304;2023-09-19T02:20:42;11.37;;;2.20;;
19251;SDS011;9760;50.944;5.304;2023-09-19T02:23:08;13.43;;;2.50;;
19251;SDS011;9760;50.944;5.304;2023-09-19T02:25:35;14.17;;;1.97;;
19251;SDS011;9760;50.944;5.304;2023-09-19T02:28:01;13.00;;;2.30;;
19251;SDS011;9760;50.944;5.304;2023-09-19T02:30:28;10.63;;;3.03;;
19251;SDS011;9760;50.944;5.304;2023-09-19T02:32:54;15.63;;;3.07;;
19251;SDS011;9760;50.944;5.304;2023-09-19T02:35:19;13.77;;;2.10;;
19251;SDS011;9760;50.944;5.304;2023-09-19T02:37:45;15.00;;;2.63;;
19251;SDS011;9760;50.944;5.304;2023-09-19T02:40:11;11.37;;;2.17;;
19251;SDS011;9760;50.944;5.304;2023-09-19T02:42:52;14.70;;;2.93;;
19251;SDS011;9760;50.944;5.304;2023-09-19T02:45:19;20.80;;;3.30;;
19251;SDS011;9760;50.944;5.304;2023-09-19T02:47:45;20.23;;;2.77;;
19251;SDS011;9760;50.944;5.304;2023-09-19T02:50:11;15.47;;;2.33;;
19251;SDS011;9760;50.944;5.304;2023-09-19T02:52:38;15.73;;;2.43;;
19251;SDS011;9760;50.944;5.304;2023-09-19T02:55:08;13.73;;;2.40;;
19251;SDS011;9760;50.944;5.304;2023-09-19T02:57:35;13.73;;;2.60;;
19251;SDS011;9760;50.944;5.304;2023-09-19T03:00:01;16.77;;;2.73;;
19251;SDS011;9760;50.944;5.304;2023-09-19T03:02:28;15.40;;;2.50;;
19251;SDS011;9760;50.944;5.304;2023-09-19T03:04:53;12.57;;;2.40;;
19251;SDS011;9760;50.944;5.304;2023-09-19T03:07:21;14.90;;;2.73;;
19251;SDS011;9760;50.944;5.304;2023-09-19T03:09:47;14.73;;;2.77;;
19251;SDS011;9760;50.944;5.304;2023-09-19T03:12:13;18.13;;;2.77;;
19251;SDS011;9760;50.944;5.304;2023-09-19T03:14:40;11.90;;;2.20;;
19251;SDS011;9760;50.944;5.304;2023-09-19T03:17:06;18.00;;;2.50;;
19251;SDS011;9760;50.944;5.304;2023-09-19T03:19:34;11.30;;;2.23;;
19251;SDS011;9760;50.944;5.304;2023-09-19T03:21:59;7.30;;;2.00;;
19251;SDS011;9760;50.944;5.304;2023-09-19T03:24:25;20.03;;;2.73;;
19251;SDS011;9760;50.944;5.304;2023-09-19T03:26:51;18.07;;;2.90;;
19251;SDS011;9760;50.944;5.304;2023-09-19T03:29:17;19.13;;;2.70;;
19251;SDS011;9760;50.944;5.304;2023-09-19T03:31:43;17.37;;;3.57;;
19251;SDS011;9760;50.944;5.304;2023-09-19T03:34:09;13.43;;;2.77;;
19251;SDS011;9760;50.944;5.304;2023-09-19T03:36:34;15.90;;;2.63;;
19251;SDS011;9760;50.944;5.304;2023-09-19T03:39:01;20.40;;;3.37;;
19251;SDS011;9760;50.944;5.304;2023-09-19T03:41:30;11.00;;;2.10;;
19251;SDS011;9760;50.944;5.304;2023-09-19T03:43:56;11.97;;;2.37;;
19251;SDS011;9760;50.944;5.304;2023-09-19T03:46:22;16.07;;;3.03;;
19251;SDS011;9760;50.944;5.304;2023-09-19T03:48:47;16.33;;;2.10;;
19251;SDS011;9760;50.944;5.304;2023-09-19T03:51:13;15.57;;;3.03;;
19251;SDS011;9760;50.944;5.304;2023-09-19T03:53:39;14.60;;;3.03;;
19251;SDS011;9760;50.944;5.304;2023-09-19T03:56:04;14.80;;;2.77;;
19251;SDS011;9760;50.944;5.304;2023-09-19T03:58:30;15.70;;;2.53;;
19251;SDS011;9760;50.944;5.304;2023-09-19T04:00:56;16.43;;;2.47;;
19251;SDS011;9760;50.944;5.304;2023-09-19T04:03:23;12.97;;;2.40;;
19251;SDS011;9760;50.944;5.304;2023-09-19T04:05:49;15.50;;;3.03;;
19251;SDS011;9760;50.944;5.304;2023-09-19T04:08:15;12.83;;;2.63;;
19251;SDS011;9760;50.944;5.304;2023-09-19T04:10:41;17.80;;;2.50;;
19251;SDS011;9760;50.944;5.304;2023-09-19T04:13:08;15.00;;;1.87;;
19251;SDS011;9760;50.944;5.304;2023-09-19T04:15:34;14.10;;;2.60;;
19251;SDS011;9760;50.944;5.304;2023-09-19T04:17:59;21.47;;;3.63;;
19251;SDS011;9760;50.944;5.304;2023-09-19T04:20:25;16.57;;;2.87;;
19251;SDS011;9760;50.944;5.304;2023-09-19T04:22:51;9.20;;;2.13;;
19251;SDS011;9760;50.944;5.304;2023-09-19T04:25:17;7.20;;;2.30;;
19251;SDS011;9760;50.944;5.304;2023-09-19T04:27:43;11.33;;;2.07;;
19251;SDS011;9760;50.944;5.304;2023-09-19T04:30:09;15.03;;;2.77;;
19251;SDS011;9760;50.944;5.304;2023-09-19T04:32:37;18.37;;;2.70;;
19251;SDS011;9760;50.944;5.304;2023-09-19T04:35:05;17.03;;;2.73;;
19251;SDS011;9760;50.944;5.304;2023-09-19T04:37:33;14.50;;;2.50;;
19251;SDS011;9760;50.944;5.304;2023-09-19T04:39:58;15.60;;;3.10;;
19251;SDS011;9760;50.944;5.304;2023-09-19T04:42:24;16.40;;;2.33;;
19251;SDS011;9760;50.944;5.304;2023-09-19T04:44:50;11.03;;;2.10;;
19251;SDS011;9760;50.944;5.304;2023-09-19T04:47:17;15.83;;;2.70;;
19251;SDS011;9760;50.944;5.304;2023-09-19T04:49:43;15.43;;;2.37;;
19251;SDS011;9760;50.944;5.304;2023-09-19T04:52:09;17.70;;;2.33;;
19251;SDS011;9760;50.944;5.304;2023-09-19T04:54:34;12.00;;;2.40;;
19251;SDS011;9760;50.944;5.304;2023-09-19T04:57:00;17.33;;;4.10;;
19251;SDS011;9760;50.944;5.304;2023-09-19T04:59:26;12.07;;;2.60;;
19251;SDS011;9760;50.944;5.304;2023-09-19T05:01:53;12.00;;;3.13;;
19251;SDS011;9760;50.944;5.304;2023-09-19T05:04:19;18.93;;;2.70;;
19251;SDS011;9760;50.944;5.304;2023-09-19T05:06:44;16.60;;;2.60;;
19251;SDS011;9760;50.944;5.304;2023-09-19T05:09:10;22.70;;;3.17;;
19251;SDS011;9760;50.944;5.304;2023-09-19T05:11:36;14.07;;;2.30;;
19251;SDS011;9760;50.944;5.304;2023-09-19T05:14:03;10.70;;;2.43;;
19251;SDS011;9760;50.944;5.304;2023-09-19T05:16:29;16.97;;;2.93;;
19251;SDS011;9760;50.944;5.304;2023-09-19T05:18:58;12.40;;;2.13;;
19251;SDS011;9760;50.944;5.304;2023-09-19T05:21:25;11.70;;;2.10;;
19251;SDS011;9760;50.944;5.304;2023-09-19T05:23:54;9.77;;;2.20;;
19251;SDS011;9760;50.944;5.304;2023-09-19T05:26:19;16.30;;;3.03;;
19251;SDS011;9760;50.944;5.304;2023-09-19T05:28:46;12.93;;;2.60;;
19251;SDS011;9760;50.944;5.304;2023-09-19T05:31:13;17.47;;;2.57;;
19251;SDS011;9760;50.944;5.304;2023-09-19T05:33:40;13.10;;;2.50;;
19251;SDS011;9760;50.944;5.304;2023-09-19T05:36:07;24.10;;;2.90;;
19251;SDS011;9760;50.944;5.304;2023-09-19T05:38:34;9.60;;;2.50;;
19251;SDS011;9760;50.944;5.304;2023-09-19T05:41:00;16.53;;;2.33;;
19251;SDS011;9760;50.944;5.304;2023-09-19T05:43:27;11.93;;;2.70;;
19251;SDS011;9760;50.944;5.304;2023-09-19T05:45:52;19.20;;;2.47;;
19251;SDS011;9760;50.944;5.304;2023-09-19T05:48:21;21.10;;;2.83;;
19251;SDS011;9760;50.944;5.304;2023-09-19T05:50:47;13.97;;;2.73;;
19251;SDS011;9760;50.944;5.304;2023-09-19T05:53:13;17.87;;;2.30;;
19251;SDS011;9760;50.944;5.304;2023-09-19T05:55:40;8.37;;;1.73;;
19251;SDS011;9760;50.944;5.304;2023-09-19T05:58:05;9.60;;;2.07;;
19251;SDS011;9760;50.944;5.304;2023-09-19T06:00:32;14.13;;;2.50;;
19251;SDS011;9760;50.944;5.304;2023-09-19T06:02:58;9.77;;;2.37;;
19251;SDS011;9760;50.944;5.304;2023-09-19T06:05:25;21.07;;;3.00;;
19251;SDS011;9760;50.944;5.304;2023-09-19T06:07:52;20.20;;;2.80;;
19251;SDS011;9760;50.944;5.304;2023-09-19T06:10:18;14.80;;;2.43;;
19251;SDS011;9760;50.944;5.304;2023-09-19T06:12:46;16.47;;;2.80;;
19251;SDS011;9760;50.944;5.304;2023-09-19T06:15:12;19.33;;;2.80;;
19251;SDS011;9760;50.944;5.304;2023-09-19T06:17:47;15.80;;;2.90;;
19251;SDS011;9760;50.944;5.304;2023-09-19T06:20:13;13.17;;;2.40;;
19251;SDS011;9760;50.944;5.304;2023-09-19T06:22:40;16.13;;;2.07;;
19251;SDS011;9760;50.944;5.304;2023-09-19T06:25:07;12.93;;;2.37;;
19251;SDS011;9760;50.944;5.304;2023-09-19T06:27:36;20.33;;;2.37;;
19251;SDS011;9760;50.944;5.304;2023-09-19T06:30:03;14.13;;;2.53;;
19251;SDS011;9760;50.944;5.304;2023-09-19T06:32:29;17.47;;;2.53;;
19251;SDS011;9760;50.944;5.304;2023-09-19T06:34:55;13.47;;;2.30;;
19251;SDS011;9760;50.944;5.304;2023-09-19T06:37:23;26.10;;;3.30;;
19251;SDS011;9760;50.944;5.304;2023-09-19T06:39:52;20.37;;;2.80;;
19251;SDS011;9760;50.944;5.304;2023-09-19T06:42:18;12.30;;;2.60;;
19251;SDS011;9760;50.944;5.304;2023-09-19T06:44:44;17.83;;;2.80;;
19251;SDS011;9760;50.944;5.304;2023-09-19T06:47:10;16.77;;;2.77;;
19251;SDS011;9760;50.944;5.304;2023-09-19T06:49:36;18.00;;;2.37;;
19251;SDS011;9760;50.944;5.304;2023-09-19T06:52:02;17.40;;;2.47;;
19251;SDS011;9760;50.944;5.304;2023-09-19T06:54:28;15.77;;;3.17;;
19251;SDS011;9760;50.944;5.304;2023-09-19T06:57:00;16.27;;;2.63;;
19251;SDS011;9760;50.944;5.304;2023-09-19T06:59:25;15.27;;;2.63;;
19251;SDS011;9760;50.944;5.304;2023-09-19T07:01:51;11.33;;;2.40;;
19251;SDS011;9760;50.944;5.304;2023-09-19T07:04:17;15.73;;;2.47;;
19251;SDS011;9760;50.944;5.304;2023-09-19T07:06:49;17.67;;;3.03;;
19251;SDS011;9760;50.944;5.304;2023-09-19T07:09:16;23.60;;;2.40;;
19251;SDS011;9760;50.944;5.304;2023-09-19T07:11:42;15.63;;;2.83;;
19251;SDS011;9760;50.944;5.304;2023-09-19T07:14:08;10.57;;;2.57;;
19251;SDS011;9760;50.944;5.304;2023-09-19T07:16:37;15.20;;;2.30;;
19251;SDS011;9760;50.944;5.304;2023-09-19T07:19:07;15.93;;;2.90;;
19251;SDS011;9760;50.944;5.304;2023-09-19T07:21:33;8.30;;;2.10;;
19251;SDS011;9760;50.944;5.304;2023-09-19T07:24:00;15.73;;;2.43;;
19251;SDS011;9760;50.944;5.304;2023-09-19T07:26:27;14.40;;;2.30;;
19251;SDS011;9760;50.944;5.304;2023-09-19T07:28:53;13.13;;;2.40;;
19251;SDS011;9760;50.944;5.304;2023-09-19T07:31:22;13.27;;;2.33;;
19251;SDS011;9760;50.944;5.304;2023-09-19T07:33:48;14.33;;;2.70;;
19251;SDS011;9760;50.944;5.304;2023-09-19T07:36:14;12.47;;;2.40;;
19251;SDS011;9760;50.944;5.304;2023-09-19T07:38:41;16.30;;;2.60;;
19251;SDS011;9760;50.944;5.304;2023-09-19T07:41:07;11.67;;;2.30;;
19251;SDS011;9760;50.944;5.304;2023-09-19T07:43:36;12.40;;;2.10;;
19251;SDS011;9760;50.944;5.304;2023-09-19T07:46:07;11.40;;;2.07;;
19251;SDS011;9760;50.944;5.304;2023-09-19T07:48:36;10.80;;;2.37;;
19251;SDS011;9760;50.944;5.304;2023-09-19T07:51:06;16.00;;;2.40;;
19251;SDS011;9760;50.944;5.304;2023-09-19T07:53:34;19.17;;;2.50;;
19251;SDS011;9760;50.944;5.304;2023-09-19T07:56:07;11.83;;;2.20;;
19251;SDS011;9760;50.944;5.304;2023-09-19T07:58:34;10.40;;;2.20;;
19251;SDS011;9760;50.944;5.304;2023-09-19T08:01:04;13.43;;;1.87;;
19251;SDS011;9760;50.944;5.304;2023-09-19T08:03:31;9.93;;;2.10;;
19251;SDS011;9760;50.944;5.304;2023-09-19T08:05:57;19.10;;;3.10;;
19251;SDS011;9760;50.944;5.304;2023-09-19T08:08:24;7.60;;;2.03;;
19251;SDS011;9760;50.944;5.304;2023-09-19T08:10:54;14.10;;;2.33;;
19251;SDS011;9760;50.944;5.304;2023-09-19T08:13:23;14.10;;;2.50;;
19251;SDS011;9760;50.944;5.304;2023-09-19T08:15:50;11.03;;;2.20;;
19251;SDS011;9760;50.944;5.304;2023-09-19T08:18:16;12.33;;;2.23;;
19251;SDS011;9760;50.944;5.304;2023-09-19T08:20:42;17.90;;;2.77;;
19251;SDS011;9760;50.944;5.304;2023-09-19T08:23:11;9.53;;;2.40;;
19251;SDS011;9760;50.944;5.304;2023-09-19T08:25:36;11.73;;;2.17;;
19251;SDS011;9760;50.944;5.304;2023-09-19T08:28:03;11.73;;;2.47;;
19251;SDS011;9760;50.944;5.304;2023-09-19T08:30:33;9.93;;;2.53;;
19251;SDS011;9760;50.944;5.304;2023-09-19T08:33:00;14.17;;;2.70;;
19251;SDS011;9760;50.944;5.304;2023-09-19T08:35:26;14.57;;;2.27;;
19251;SDS011;9760;50.944;5.304;2023-09-19T08:37:52;12.97;;;3.37;;
19251;SDS011;9760;50.944;5.304;2023-09-19T08:40:18;18.60;;;3.60;;
19251;SDS011;9760;50.944;5.304;2023-09-19T08:45:18;13.03;;;2.87;;
19251;SDS011;9760;50.944;5.304;2023-09-19T08:50:48;12.77;;;2.00;;
19251;SDS011;9760;50.944;5.304;2023-09-19T08:53:27;11.50;;;1.90;;
19251;SDS011;9760;50.944;5.304;2023-09-19T08:56:08;12.23;;;2.30;;
19251;SDS011;9760;50.944;5.304;2023-09-19T08:58:42;16.63;;;2.60;;
19251;SDS011;9760;50.944;5.304;2023-09-19T09:01:12;17.40;;;3.00;;
19251;SDS011;9760;50.944;5.304;2023-09-19T09:03:40;10.93;;;2.30;;
19251;SDS011;9760;50.944;5.304;2023-09-19T09:06:11;6.87;;;2.00;;
19251;SDS011;9760;50.944;5.304;2023-09-19T09:08:40;18.00;;;2.23;;
19251;SDS011;9760;50.944;5.304;2023-09-19T09:11:08;14.60;;;2.70;;
19251;SDS011;9760;50.944;5.304;2023-09-19T09:13:35;16.87;;;2.67;;
19251;SDS011;9760;50.944;5.304;2023-09-19T09:16:02;13.67;;;2.50;;
19251;SDS011;9760;50.944;5.304;2023-09-19T09:18:28;19.73;;;2.53;;
19251;SDS011;9760;50.944;5.304;2023-09-19T09:20:57;14.63;;;3.37;;
19251;SDS011;9760;50.944;5.304;2023-09-19T09:23:23;12.53;;;2.87;;
19251;SDS011;9760;50.944;5.304;2023-09-19T09:25:51;11.50;;;2.70;;
19251;SDS011;9760;50.944;5.304;2023-09-19T09:28:22;12.33;;;2.70;;
19251;SDS011;9760;50.944;5.304;2023-09-19T09:30:50;16.20;;;3.47;;
19251;SDS011;9760;50.944;5.304;2023-09-19T09:33:16;9.97;;;2.80;;
19251;SDS011;9760;50.944;5.304;2023-09-19T09:38:21;16.80;;;2.87;;
19251;SDS011;9760;50.944;5.304;2023-09-19T09:40:52;11.63;;;2.10;;
19251;SDS011;9760;50.944;5.304;2023-09-19T09:43:47;14.03;;;2.60;;
19251;SDS011;9760;50.944;5.304;2023-09-19T09:46:14;15.30;;;2.93;;
19251;SDS011;9760;50.944;5.304;2023-09-19T09:48:45;15.23;;;2.43;;
19251;SDS011;9760;50.944;5.304;2023-09-19T09:51:31;10.87;;;2.50;;
19251;SDS011;9760;50.944;5.304;2023-09-19T09:54:11;12.47;;;2.40;;
19251;SDS011;9760;50.944;5.304;2023-09-19T09:56:53;10.77;;;2.50;;
19251;SDS011;9760;50.944;5.304;2023-09-19T09:59:21;12.77;;;2.37;;
19251;SDS011;9760;50.944;5.304;2023-09-19T10:01:49;12.77;;;2.30;;
19251;SDS011;9760;50.944;5.304;2023-09-19T10:04:27;12.60;;;2.20;;
19251;SDS011;9760;50.944;5.304;2023-09-19T10:07:01;16.00;;;2.77;;
19251;SDS011;9760;50.944;5.304;2023-09-19T10:09:30;16.23;;;2.60;;
19251;SDS011;9760;50.944;5.304;2023-09-19T10:12:09;15.37;;;2.63;;
19251;SDS011;9760;50.944;5.304;2023-09-19T10:14:38;14.30;;;2.30;;
19251;SDS011;9760;50.944;5.304;2023-09-19T10:17:05;14.23;;;2.53;;
19251;SDS011;9760;50.944;5.304;2023-09-19T10:19:46;13.13;;;2.27;;
19251;SDS011;9760;50.944;5.304;2023-09-19T10:22:24;12.33;;;2.60;;
19251;SDS011;9760;50.944;5.304;2023-09-19T10:24:55;8.37;;;2.40;;
19251;SDS011;9760;50.944;5.304;2023-09-19T10:27:22;17.03;;;2.70;;
19251;SDS011;9760;50.944;5.304;2023-09-19T10:29:51;13.07;;;2.50;;
19251;SDS011;9760;50.944;5.304;2023-09-19T10:32:22;9.53;;;1.80;;
19251;SDS011;9760;50.944;5.304;2023-09-19T10:34:49;14.17;;;2.47;;
19251;SDS011;9760;50.944;5.304;2023-09-19T10:37:18;15.90;;;2.40;;
19251;SDS011;9760;50.944;5.304;2023-09-19T10:39:47;9.17;;;2.13;;
19251;SDS011;9760;50.944;5.304;2023-09-19T10:42:16;16.00;;;2.17;;
19251;SDS011;9760;50.944;5.304;2023-09-19T10:44:45;6.87;;;1.73;;
19251;SDS011;9760;50.944;5.304;2023-09-19T10:47:19;12.73;;;2.47;;
19251;SDS011;9760;50.944;5.304;2023-09-19T10:49:45;12.93;;;2.00;;
19251;SDS011;9760;50.944;5.304;2023-09-19T10:52:12;11.33;;;2.37;;
19251;SDS011;9760;50.944;5.304;2023-09-19T10:54:45;12.00;;;2.20;;
19251;SDS011;9760;50.944;5.304;2023-09-19T10:57:20;8.03;;;1.67;;
19251;SDS011;9760;50.944;5.304;2023-09-19T11:00:02;11.60;;;1.80;;
19251;SDS011;9760;50.944;5.304;2023-09-19T11:03:15;9.37;;;1.93;;
19251;SDS011;9760;50.944;5.304;2023-09-19T11:05:34;9.80;;;1.70;;
19251;SDS011;9760;50.944;5.304;2023-09-19T11:08:05;7.87;;;2.10;;
19251;SDS011;9760;50.944;5.304;2023-09-19T11:10:48;5.33;;;1.43;;
19251;SDS011;9760;50.944;5.304;2023-09-19T11:13:28;8.77;;;1.60;;
19251;SDS011;9760;50.944;5.304;2023-09-19T11:16:03;8.17;;;1.67;;
19251;SDS011;9760;50.944;5.304;2023-09-19T11:26:49;5.90;;;1.30;;
19251;SDS011;9760;50.944;5.304;2023-09-19T11:29:24;11.90;;;1.80;;
19251;SDS011;9760;50.944;5.304;2023-09-19T11:31:55;7.27;;;1.50;;
19251;SDS011;9760;50.944;5.304;2023-09-19T11:34:42;54.67;;;4.37;;
19251;SDS011;9760;50.944;5.304;2023-09-19T11:39:37;14.90;;;2.10;;
19251;SDS011;9760;50.944;5.304;2023-09-19T11:45:06;6.43;;;1.50;;
19251;SDS011;9760;50.944;5.304;2023-09-19T11:47:32;4.13;;;1.30;;
19251;SDS011;9760;50.944;5.304;2023-09-19T11:50:00;7.27;;;1.73;;
19251;SDS011;9760;50.944;5.304;2023-09-19T11:52:26;7.73;;;2.43;;
19251;SDS011;9760;50.944;5.304;2023-09-19T11:54:59;5.60;;;1.57;;
19251;SDS011;9760;50.944;5.304;2023-09-19T11:57:26;10.83;;;1.70;;
19251;SDS011;9760;50.944;5.304;2023-09-19T11:59:55;12.63;;;1.87;;
19251;SDS011;9760;50.944;5.304;2023-09-19T12:02:42;7.73;;;1.30;;
19251;SDS011;9760;50.944;5.304;2023-09-19T12:05:11;4.83;;;1.10;;
19251;SDS011;9760;50.944;5.304;2023-09-19T12:07:43;7.67;;;1.63;;
19251;SDS011;9760;50.944;5.304;2023-09-19T12:10:13;4.13;;;1.07;;
19251;SDS011;9760;50.944;5.304;2023-09-19T12:12:45;7.90;;;1.40;;
19251;SDS011;9760;50.944;5.304;2023-09-19T12:15:14;7.40;;;1.50;;
19251;SDS011;9760;50.944;5.304;2023-09-19T12:17:40;9.90;;;1.57;;
19251;SDS011;9760;50.944;5.304;2023-09-19T12:20:07;7.57;;;1.80;;
19251;SDS011;9760;50.944;5.304;2023-09-19T12:22:43;7.30;;;1.80;;
19251;SDS011;9760;50.944;5.304;2023-09-19T12:25:11;4.73;;;1.17;;
19251;SDS011;9760;50.944;5.304;2023-09-19T12:27:45;9.10;;;1.10;;
19251;SDS011;9760;50.944;5.304;2023-09-19T12:30:12;2.97;;;1.07;;
19251;SDS011;9760;50.944;5.304;2023-09-19T12:32:40;5.63;;;1.30;;
19251;SDS011;9760;50.944;5.304;2023-09-19T12:35:07;7.23;;;1.30;;
19251;SDS011;9760;50.944;5.304;2023-09-19T12:37:35;8.30;;;1.30;;
19251;SDS011;9760;50.944;5.304;2023-09-19T12:40:10;5.80;;;1.17;;
19251;SDS011;9760;50.944;5.304;2023-09-19T12:42:43;7.90;;;1.10;;
19251;SDS011;9760;50.944;5.304;2023-09-19T12:45:10;6.33;;;1.13;;
19251;SDS011;9760;50.944;5.304;2023-09-19T12:47:40;5.63;;;1.33;;
19251;SDS011;9760;50.944;5.304;2023-09-19T12:50:26;4.77;;;1.20;;
19251;SDS011;9760;50.944;5.304;2023-09-19T12:52:54;11.30;;;1.00;;
19251;SDS011;9760;50.944;5.304;2023-09-19T13:00:35;4.10;;;0.73;;
19251;SDS011;9760;50.944;5.304;2023-09-19T13:03:10;2.33;;;0.80;;
19251;SDS011;9760;50.944;5.304;2023-09-19T13:05:47;4.90;;;0.80;;
19251;SDS011;9760;50.944;5.304;2023-09-19T13:08:27;8.20;;;1.17;;
19251;SDS011;9760;50.944;5.304;2023-09-19T13:11:01;9.77;;;0.90;;
19251;SDS011;9760;50.944;5.304;2023-09-19T13:16:33;6.23;;;1.07;;
19251;SDS011;9760;50.944;5.304;2023-09-19T13:18:58;6.10;;;1.10;;
19251;SDS011;9760;50.944;5.304;2023-09-19T13:21:31;10.43;;;1.47;;
19251;SDS011;9760;50.944;5.304;2023-09-19T13:24:17;4.77;;;1.20;;
19251;SDS011;9760;50.944;5.304;2023-09-19T13:26:45;5.43;;;1.33;;
19251;SDS011;9760;50.944;5.304;2023-09-19T13:29:11;3.67;;;0.93;;
19251;SDS011;9760;50.944;5.304;2023-09-19T13:31:37;7.93;;;1.30;;
19251;SDS011;9760;50.944;5.304;2023-09-19T13:34:06;7.23;;;1.10;;
19251;SDS011;9760;50.944;5.304;2023-09-19T13:36:32;4.27;;;1.20;;
19251;SDS011;9760;50.944;5.304;2023-09-19T13:38:58;7.73;;;1.60;;
19251;SDS011;9760;50.944;5.304;2023-09-19T13:41:25;7.60;;;1.37;;
19251;SDS011;9760;50.944;5.304;2023-09-19T13:43:51;8.17;;;1.10;;
19251;SDS011;9760;50.944;5.304;2023-09-19T13:46:18;3.13;;;1.00;;
19251;SDS011;9760;50.944;5.304;2023-09-19T13:48:50;6.13;;;1.30;;
19251;SDS011;9760;50.944;5.304;2023-09-19T13:51:19;5.53;;;1.07;;
19251;SDS011;9760;50.944;5.304;2023-09-19T13:53:48;4.07;;;1.10;;
19251;SDS011;9760;50.944;5.304;2023-09-19T13:56:14;4.63;;;1.10;;
19251;SDS011;9760;50.944;5.304;2023-09-19T13:58:39;5.83;;;1.00;;
19251;SDS011;9760;50.944;5.304;2023-09-19T14:01:06;5.47;;;1.07;;
19251;SDS011;9760;50.944;5.304;2023-09-19T14:03:41;5.10;;;1.00;;
19251;SDS011;9760;50.944;5.304;2023-09-19T14:06:11;6.63;;;1.30;;
19251;SDS011;9760;50.944;5.304;2023-09-19T14:08:41;7.93;;;1.70;;
19251;SDS011;9760;50.944;5.304;2023-09-19T14:11:07;6.70;;;1.20;;
19251;SDS011;9760;50.944;5.304;2023-09-19T14:13:33;4.37;;;1.00;;
19251;SDS011;9760;50.944;5.304;2023-09-19T14:16:05;4.37;;;1.00;;
19251;SDS011;9760;50.944;5.304;2023-09-19T14:18:31;6.53;;;1.27;;
19251;SDS011;9760;50.944;5.304;2023-09-19T14:20:57;3.63;;;1.00;;
19251;SDS011;9760;50.944;5.304;2023-09-19T14:23:23;3.83;;;0.90;;
19251;SDS011;9760;50.944;5.304;2023-09-19T14:25:50;6.33;;;1.03;;
19251;SDS011;9760;50.944;5.304;2023-09-19T14:28:18;4.37;;;1.23;;
19251;SDS011;9760;50.944;5.304;2023-09-19T14:30:48;3.40;;;1.00;;
19251;SDS011;9760;50.944;5.304;2023-09-19T14:33:14;5.43;;;1.07;;
19251;SDS011;9760;50.944;5.304;2023-09-19T14:35:40;5.33;;;1.10;;
19251;SDS011;9760;50.944;5.304;2023-09-19T14:38:06;4.90;;;1.20;;
19251;SDS011;9760;50.944;5.304;2023-09-19T14:40:32;5.77;;;1.20;;
19251;SDS011;9760;50.944;5.304;2023-09-19T14:42:57;5.70;;;1.10;;
19251;SDS011;9760;50.944;5.304;2023-09-19T14:45:23;4.00;;;1.10;;
19251;SDS011;9760;50.944;5.304;2023-09-19T14:47:53;5.23;;;1.47;;
19251;SDS011;9760;50.944;5.304;2023-09-19T14:50:21;6.80;;;1.47;;
19251;SDS011;9760;50.944;5.304;2023-09-19T14:52:47;6.37;;;1.23;;
19251;SDS011;9760;50.944;5.304;2023-09-19T14:55:18;13.43;;;1.80;;
19251;SDS011;9760;50.944;5.304;2023-09-19T14:57:48;10.13;;;1.47;;
19251;SDS011;9760;50.944;5.304;2023-09-19T15:00:16;6.50;;;1.27;;
19251;SDS011;9760;50.944;5.304;2023-09-19T15:02:42;3.27;;;1.00;;
19251;SDS011;9760;50.944;5.304;2023-09-19T15:05:10;3.00;;;1.00;;
19251;SDS011;9760;50.944;5.304;2023-09-19T15:07:36;5.97;;;1.00;;
19251;SDS011;9760;50.944;5.304;2023-09-19T15:10:03;7.40;;;1.20;;
19251;SDS011;9760;50.944;5.304;2023-09-19T15:12:32;5.33;;;1.23;;
19251;SDS011;9760;50.944;5.304;2023-09-19T15:14:58;5.07;;;1.47;;
19251;SDS011;9760;50.944;5.304;2023-09-19T15:17:24;7.90;;;1.20;;
19251;SDS011;9760;50.944;5.304;2023-09-19T15:19:50;5.87;;;1.37;;
19251;SDS011;9760;50.944;5.304;2023-09-19T15:22:16;5.83;;;1.33;;
19251;SDS011;9760;50.944;5.304;2023-09-19T15:24:42;5.43;;;1.20;;
19251;SDS011;9760;50.944;5.304;2023-09-19T15:27:08;9.50;;;1.67;;
19251;SDS011;9760;50.944;5.304;2023-09-19T15:29:33;6.57;;;1.47;;
19251;SDS011;9760;50.944;5.304;2023-09-19T15:31:59;6.10;;;1.13;;
19251;SDS011;9760;50.944;5.304;2023-09-19T15:34:27;11.43;;;1.20;;
19251;SDS011;9760;50.944;5.304;2023-09-19T15:36:54;5.23;;;1.57;;
19251;SDS011;9760;50.944;5.304;2023-09-19T15:39:19;7.73;;;1.33;;
19251;SDS011;9760;50.944;5.304;2023-09-19T15:41:47;5.67;;;1.20;;
19251;SDS011;9760;50.944;5.304;2023-09-19T15:44:17;6.87;;;1.60;;
19251;SDS011;9760;50.944;5.304;2023-09-19T15:46:44;6.20;;;1.50;;
19251;SDS011;9760;50.944;5.304;2023-09-19T15:49:10;9.20;;;1.47;;
19251;SDS011;9760;50.944;5.304;2023-09-19T15:51:36;8.30;;;1.67;;